Terminal Aerodrome Forecast
Issued by NWS Duluth, MN

Home | Current Version | Previous Version | Text Only | Print | Product List | Glossary On
Versions: 1 2 3 4 5 6 7 8 9 10 11 12 13 14 15 16 17 18 19 20 21 22 23 24 25 26 27 28 29 30 31
150
FTUS43 KDLH 042352
TAFDLH
TAF
KDLH 042352Z 0500/0524 17006KT 3SM -SN BR OVC002
      TEMPO 0500/0503 1SM -SN BR OVC002
     FM050300 23007KT 1SM -FZDZ BR VCSH OVC003
     FM050500 26008KT 5SM BR BKN008
     FM051200 21006KT P6SM BKN012
     FM052100 19005KT P6SM VCSH BKN008=

USA.gov is the U.S. government's official web portal to all federal, state and local government web resources and services.